Thompson Falls, MT (59873)

1:14 PM MST on December 03, 2016 (GMT -0700)
Whitepine area | | Change Station
Active Advisory: Winter Storm Watch

Elev 2550 ft 47.77 °N, 115.50 °W | Updated 2 minutes ago

Overcast
Overcast
40.1 °F
Feels Like 37 °F
N
4.8
Wind Variable Wind from SW
Gusts 9.4 mph

Today
High -- | Low -- °F
--% Chance of Precip.
Yesterday
High -- | Low -- °F
Precip. -- in
Pressure 30.24 in
Visibility 10.0 miles
Clouds Mostly Cloudy 2000 ft
Overcast 2800 ft
Windchill 37 °F
Dew Point 29 °F
Humidity 63%
Rainfall 0.00 in
Snow Depth Not available.
8:11 AM 4:50 PM
Waxing Crescent, 17% visible
METAR KCOE 031956Z AUTO 20008KT 10SM BKN020 OVC028 05/01 A3013 RMK AO2 SLP238 T00500006
Pressure 30.24 in
Visibility 10.0 miles
Clouds Mostly Cloudy 2000 ft
Overcast 2800 ft
Windchill 37 °F
Dew Point 29 °F
Humidity 63%
Rainfall 0.00 in
Snow Depth Not available.
8:11 AM 4:50 PM
Waxing Crescent, 17% visible
METAR KCOE 031956Z AUTO 20008KT 10SM BKN020 OVC028 05/01 A3013 RMK AO2 SLP238 T00500006

10-Day Weather Forecast

Almanac

Astronomy

Dec. 03, 2016 Rise Set
Actual Time
Civil Twilight
Nautical Twilight
Astronomical Twilight
Moon
Length of Visible Light
Length of Day
Tomorrow will be .
, % of the Moon is Illuminated

Today's Extremes

State Highs State Lows

Community

WunderPhotos

Upload Photos

1,955,486 photos uploaded!

WunderBlog® & News

Nearby

Air Quality

  Air Quality AQ Index Pollutant
Not available.

Snow Depth

Station Depth Elevation

Earthquake Activity

City Distance Mag. Time & Date
Minimum magnitude displayed is 2.5.

Coastal Water Temperatures

Place Temperature

Stations

Nearby Weather Stations

Station Location Temp. Windchill Dew Point Humidity Wind Precip. Elev Updated Type
                   

Watches & Warnings

Winter Storm Watch
Issued: 3:33 AM MST Dec. 3, 2016 – National Weather Service

... Winter Weather Advisory remains in effect until 11 am MST this
morning...
... Winter Storm Watch remains in effect from this evening through
Monday morning...

The National Weather Service in Missoula has issued a Winter
Weather Advisory for accumulating snow... which is in effect from
8 PM this evening to 11 am MST Saturday. A Winter Storm Watch has
also been issued. This Winter Storm Watch is in effect from
Saturday evening through Monday morning.

* Impacts/timing: light to moderate snow will cause periods of
reduced visibility and slick snow-covered roads through this
morning. Snow will return for tonight and the combination of
accumulating snow, wind, and quickly dropping temperatures has
the potential to create hazardous travel conditions Sunday
evening through Monday morning.

* Snow accumulations by this morning: 1 to 2 inches in valleys. 3
to 4 inches for mountain passes such as lookout and marias.

* Snow accumulations Sunday through monday: 3 to 7 inches in
valleys, 10 to 14 inches for mountains and passes.

* Winds: gusty northwest winds with the cold front Sunday
evening.